createdAt,value
2023-05-06T00:00:08.839Z,1019.0459651788549
2023-05-06T00:06:28.263Z,1019.033230249163
2023-05-06T00:15:39.433Z,1018.969625685686
2023-05-06T00:26:48.175Z,1018.9567345096366
2023-05-06T00:43:19.988Z,1019.0590343123959
2023-05-06T00:49:39.473Z,1019.0724515776957
2023-05-06T00:55:59.190Z,1019.1181281464693
2023-05-06T01:02:18.666Z,1019.151817408411
2023-05-06T01:08:38.793Z,1019.1573976369533
2023-05-06T01:14:58.601Z,1019.1116234362125
2023-05-06T01:28:39.139Z,1019.1610234591893
2023-05-06T01:34:58.575Z,1019.1937875603618
2023-05-06T01:44:43.498Z,1019.248931240642
2023-05-06T01:51:02.794Z,1019.3301357396035
2023-05-06T02:02:11.784Z,1019.3672747871532
2023-05-06T02:08:31.194Z,1019.4231404571418
2023-05-06T02:14:50.011Z,1019.4161628285098
2023-05-06T02:21:08.946Z,1019.3471596563842
2023-05-06T02:27:30.786Z,1019.3286062275607
2023-05-06T02:33:50.736Z,1019.3608526450521
2023-05-06T02:40:11.001Z,1019.3804510148346
2023-05-06T02:49:24.644Z,1019.4179021056655
2023-05-06T02:56:05.060Z,1019.4451091607525
2023-05-06T03:02:28.332Z,1019.3801734745913
2023-05-06T03:10:32.730Z,1019.3339447535035
2023-05-06T03:16:51.628Z,1019.2596234771988
2023-05-06T03:23:32.140Z,1019.1428249434897
2023-05-06T03:29:52.726Z,1019.2622196843942
2023-05-06T03:41:51.478Z,1019.362232361032
2023-05-06T03:48:10.586Z,1019.4255891397436
2023-05-06T03:56:15.670Z,1019.455782952396
2023-05-06T04:04:42.999Z,1019.4723972453892
2023-05-06T04:11:03.251Z,1019.5232515017908
2023-05-06T04:17:26.808Z,1019.590880762828
2023-05-06T04:23:52.222Z,1019.6399916724894
2023-05-06T04:30:17.104Z,1019.7023079895281
2023-05-06T04:36:41.437Z,1019.7622914367241
2023-05-06T04:47:47.704Z,1019.8492702433923
2023-05-06T04:54:09.688Z,1019.9072301382663
2023-05-06T05:00:32.436Z,1019.9305325895665
2023-05-06T05:06:56.604Z,1019.9423402310067
2023-05-06T05:18:06.210Z,1020.0432622880437
2023-05-06T05:24:30.545Z,1020.1085131705371
2023-05-06T05:30:53.197Z,1020.1539405691881
2023-05-06T05:37:18.546Z,1020.1700237440253
2023-05-06T05:43:43.264Z,1020.2015773569902
2023-05-06T05:52:50.352Z,1020.2579809424714
2023-05-06T06:03:46.132Z,1020.3195467798057
2023-05-06T06:11:33.906Z,1020.3067668242085
2023-05-06T06:18:14.789Z,1020.3695623472283
2023-05-06T06:24:38.369Z,1020.4443976184428
2023-05-06T06:31:02.866Z,1020.5152306614458
2023-05-06T06:39:44.197Z,1020.5969354832985
2023-05-06T06:58:22.003Z,1020.7699685346116
2023-05-06T07:16:40.974Z,1020.7618894458217
2023-05-06T07:27:52.655Z,1020.9135377757312
2023-05-06T07:36:05.684Z,1020.8802477041511
2023-05-06T07:42:34.688Z,1020.9501697056052
2023-05-06T07:49:05.458Z,1021.029059190131
2023-05-06T08:00:00.054Z,1021.0259326205875
2023-05-06T08:10:46.573Z,1021.1454986810346
2023-05-06T08:29:45.809Z,1021.2449639762172
2023-05-06T08:36:08.846Z,1021.3402852568278
2023-05-06T08:42:31.710Z,1021.3714215604901
2023-05-06T08:53:10.835Z,1021.4505453019883
2023-05-06T08:59:33.120Z,1021.5050824016389
2023-05-06T09:05:56.659Z,1021.4895288116045
2023-05-06T09:15:26.875Z,1021.5460720556885
2023-05-06T09:21:56.065Z,1021.5185513309473
2023-05-06T09:30:31.608Z,1021.4943192092461
2023-05-06T09:36:55.253Z,1021.5135825148037
2023-05-06T09:43:18.476Z,1021.5195283906314
2023-05-06T09:49:40.642Z,1021.4012944552402
2023-05-06T09:56:02.547Z,1021.4306626271898
2023-05-06T10:02:25.119Z,1021.4024778331928
2023-05-06T10:14:48.222Z,1021.3574688279033
2023-05-06T10:21:11.238Z,1021.3382260223166
2023-05-06T10:27:34.140Z,1021.3211074399361
2023-05-06T10:33:56.614Z,1021.3105695371927
2023-05-06T10:42:31.494Z,1021.3544909974523
2023-05-06T10:52:44.928Z,1021.2899597609794
2023-05-06T10:59:07.489Z,1021.2297544471996
2023-05-06T11:05:29.275Z,1021.2166696573873
2023-05-06T11:15:15.283Z,1021.1419129641328
2023-05-06T11:21:37.490Z,1021.1691575897144
2023-05-06T11:31:37.886Z,1021.1500654300621
2023-05-06T11:38:01.298Z,1021.102500410043
2023-05-06T11:44:24.920Z,1021.0960090368417
2023-05-06T11:50:48.255Z,1021.1551226453998
2023-05-06T11:57:11.299Z,1021.2230701999752
2023-05-06T12:06:45.370Z,1021.2662074290508
2023-05-06T12:13:07.979Z,1021.2923540866864
2023-05-06T12:19:31.453Z,1021.2799645238708
2023-05-06T12:30:11.670Z,1021.3548098328469
2023-05-06T12:36:35.089Z,1021.3369482490674
2023-05-06T12:42:58.450Z,1021.3448769611433
2023-05-06T12:49:22.827Z,1021.3646677571145
2023-05-06T12:55:48.028Z,1021.3170603938754
2023-05-06T13:02:10.426Z,1021.2966545479082
2023-05-06T13:11:52.559Z,1021.2508278928318
2023-05-06T13:18:17.176Z,1021.2222154293047
2023-05-06T13:24:39.657Z,1021.176493121554
2023-05-06T13:31:03.110Z,1021.1706391161784
2023-05-06T13:37:26.956Z,1021.1689261093098
2023-05-06T13:49:28.119Z,1021.084184154524
2023-05-06T13:55:50.757Z,1021.0443913581666
2023-05-06T14:02:13.900Z,1021.0064884153852
2023-05-06T14:13:50.355Z,1020.9877242628714
2023-05-06T14:20:12.864Z,1020.9648650573209
2023-05-06T14:26:35.232Z,1020.9521072367154
2023-05-06T14:36:45.800Z,1020.8237958467145
2023-05-06T14:43:08.852Z,1020.7308156341093
2023-05-06T14:49:31.284Z,1020.6857102330337
2023-05-06T14:55:54.011Z,1020.6559115685842
2023-05-06T15:08:00.610Z,1020.648970230817
2023-05-06T15:14:24.028Z,1020.7121695656056
2023-05-06T15:20:46.573Z,1020.7970237659094
2023-05-06T15:27:09.579Z,1020.8811305067073
2023-05-06T15:36:18.603Z,1020.9362192872943
2023-05-06T15:44:32.108Z,1021.0408573185734
2023-05-06T15:50:53.913Z,1021.0230828465833
2023-05-06T15:57:17.880Z,1021.0462905289886
2023-05-06T16:08:19.476Z,1021.1162542706588
2023-05-06T16:14:44.009Z,1021.1293170103777
2023-05-06T16:21:07.748Z,1021.2092242518632
2023-05-06T16:27:29.364Z,1021.2035962347004
2023-05-06T16:33:51.673Z,1021.1953046577829
2023-05-06T16:40:15.966Z,1021.1656796481818
2023-05-06T16:46:38.526Z,1021.0909856578235
2023-05-06T16:59:08.786Z,1021.0728650605046
2023-05-06T17:05:30.832Z,1021.0083136787814
2023-05-06T17:11:52.860Z,1021.0366378959029
2023-05-06T17:18:15.456Z,1021.0884827290658
2023-05-06T17:24:38.369Z,1021.1292211156851
2023-05-06T17:30:59.814Z,1021.1522874079966
2023-05-06T17:37:34.236Z,1021.2287236522984
2023-05-06T17:43:56.160Z,1021.2225075874078
2023-05-06T17:50:18.224Z,1021.2705166673
2023-05-06T17:56:40.432Z,1021.2547568695086
2023-05-06T18:03:03.653Z,1021.2814761188068
2023-05-06T18:09:25.276Z,1021.3346880822256
2023-05-06T18:21:09.028Z,1021.4973419611358
2023-05-06T18:27:30.659Z,1021.584533342494
2023-05-06T18:33:52.230Z,1021.6360448184084
2023-05-06T18:40:13.624Z,1021.6723611055121
2023-05-06T18:46:35.312Z,1021.7083467735604
2023-05-06T19:05:14.539Z,1021.9227153197737
2023-05-06T19:11:34.709Z,1021.9568723891788
2023-05-06T19:19:58.215Z,1021.9696779553103
2023-05-06T19:26:18.364Z,1021.9863550661499
2023-05-06T19:36:24.539Z,1022.1609728183275
2023-05-06T19:42:47.095Z,1022.1215328716227
2023-05-06T19:49:06.982Z,1022.1590647493889
2023-05-06T19:56:59.163Z,1022.184441207877
2023-05-06T20:03:25.039Z,1022.1932612660728
2023-05-06T20:09:44.501Z,1022.2312078893845
2023-05-06T20:16:06.502Z,1022.2343559627882
2023-05-06T20:22:26.153Z,1022.2577663436185
2023-05-06T20:28:45.398Z,1022.2699366419878
2023-05-06T20:35:07.051Z,1022.3321333410792
2023-05-06T20:41:26.433Z,1022.4370029724367
2023-05-06T20:47:47.029Z,1022.4572286004721
2023-05-06T20:54:09.053Z,1022.5169177195478
2023-05-06T21:00:28.490Z,1022.5887666873423
2023-05-06T21:06:47.672Z,1022.6490327781463
2023-05-06T21:17:47.599Z,1022.5977710198952
2023-05-06T21:24:08.008Z,1022.5298309172167
2023-05-06T21:40:33.764Z,1022.4586869563149
2023-05-06T21:47:08.508Z,1022.4340611558356
2023-05-06T21:55:09.147Z,1022.4162284128342
2023-05-06T22:05:41.249Z,1022.4053535734469
2023-05-06T22:12:02.652Z,1022.4404004912828
2023-05-06T22:18:23.102Z,1022.429680606314
2023-05-06T22:24:42.998Z,1022.4744047234493
2023-05-06T22:31:03.004Z,1022.526255195897
2023-05-06T22:38:23.012Z,1022.5561781853668
2023-05-06T22:44:49.057Z,1022.6313184284
2023-05-06T22:51:09.329Z,1022.631965925814
2023-05-06T22:57:30.809Z,1022.5909318415287
2023-05-06T23:03:50.325Z,1022.5814661291657
2023-05-06T23:10:10.398Z,1022.6211295905695
2023-05-06T23:16:29.837Z,1022.6251728493726
2023-05-06T23:22:49.640Z,1022.6777055902371
2023-05-06T23:29:10.034Z,1022.6731304265979
2023-05-06T23:35:29.374Z,1022.6854235442755
2023-05-06T23:41:48.953Z,1022.7267091840387
2023-05-06T23:51:07.334Z,1022.7461629000945
2023-05-06T23:57:28.374Z,1022.7931474133238
